sensor_id;sensor_type;location;lat;lon;timestamp;P1;durP1;ratioP1;P2;durP2;ratioP2
21014;SDS011;19207;-23.482;-46.500;2023-03-11T00:00:35;82.30;;;40.80;;
21014;SDS011;19207;-23.482;-46.500;2023-03-11T00:03:22;84.57;;;40.50;;
21014;SDS011;19207;-23.482;-46.500;2023-03-11T00:06:09;51.95;;;27.55;;
21014;SDS011;19207;-23.482;-46.500;2023-03-11T00:08:55;49.70;;;24.65;;
21014;SDS011;19207;-23.482;-46.500;2023-03-11T00:11:42;61.80;;;25.60;;
21014;SDS011;19207;-23.482;-46.500;2023-03-11T00:14:29;57.62;;;26.20;;
21014;SDS011;19207;-23.482;-46.500;2023-03-11T00:17:16;38.08;;;18.67;;
21014;SDS011;19207;-23.482;-46.500;2023-03-11T00:20:03;41.67;;;21.08;;
21014;SDS011;19207;-23.482;-46.500;2023-03-11T00:22:51;107.53;;;44.58;;
21014;SDS011;19207;-23.482;-46.500;2023-03-11T00:25:38;80.82;;;36.00;;
21014;SDS011;19207;-23.482;-46.500;2023-03-11T00:28:25;69.80;;;33.83;;
21014;SDS011;19207;-23.482;-46.500;2023-03-11T00:31:12;67.47;;;32.08;;
21014;SDS011;19207;-23.482;-46.500;2023-03-11T00:33:59;71.53;;;31.37;;
21014;SDS011;19207;-23.482;-46.500;2023-03-11T00:36:46;166.18;;;81.55;;
21014;SDS011;19207;-23.482;-46.500;2023-03-11T00:39:33;345.05;;;160.12;;
21014;SDS011;19207;-23.482;-46.500;2023-03-11T00:42:20;202.13;;;92.18;;
21014;SDS011;19207;-23.482;-46.500;2023-03-11T00:45:07;117.82;;;52.78;;
21014;SDS011;19207;-23.482;-46.500;2023-03-11T00:47:54;66.65;;;33.08;;
21014;SDS011;19207;-23.482;-46.500;2023-03-11T00:50:41;50.33;;;25.65;;
21014;SDS011;19207;-23.482;-46.500;2023-03-11T00:53:28;28.77;;;15.52;;
21014;SDS011;19207;-23.482;-46.500;2023-03-11T00:56:17;42.75;;;21.02;;
21014;SDS011;19207;-23.482;-46.500;2023-03-11T00:59:05;37.47;;;18.48;;
21014;SDS011;19207;-23.482;-46.500;2023-03-11T01:01:51;30.60;;;14.85;;
21014;SDS011;19207;-23.482;-46.500;2023-03-11T01:04:39;32.88;;;15.95;;
21014;SDS011;19207;-23.482;-46.500;2023-03-11T01:07:26;52.58;;;30.70;;
21014;SDS011;19207;-23.482;-46.500;2023-03-11T01:10:13;92.55;;;48.65;;
21014;SDS011;19207;-23.482;-46.500;2023-03-11T01:13:01;85.25;;;38.92;;
21014;SDS011;19207;-23.482;-46.500;2023-03-11T01:15:47;54.20;;;26.75;;
21014;SDS011;19207;-23.482;-46.500;2023-03-11T01:18:34;43.92;;;21.20;;
21014;SDS011;19207;-23.482;-46.500;2023-03-11T01:21:22;56.08;;;26.17;;
21014;SDS011;19207;-23.482;-46.500;2023-03-11T01:24:09;53.13;;;25.70;;
21014;SDS011;19207;-23.482;-46.500;2023-03-11T01:26:56;80.35;;;36.95;;
21014;SDS011;19207;-23.482;-46.500;2023-03-11T01:29:46;90.80;;;44.92;;
21014;SDS011;19207;-23.482;-46.500;2023-03-11T01:32:33;140.52;;;71.85;;
21014;SDS011;19207;-23.482;-46.500;2023-03-11T01:35:22;144.02;;;76.57;;
21014;SDS011;19207;-23.482;-46.500;2023-03-11T01:38:08;49.53;;;26.00;;
21014;SDS011;19207;-23.482;-46.500;2023-03-11T01:40:55;12.65;;;8.70;;
21014;SDS011;19207;-23.482;-46.500;2023-03-11T01:46:31;17.48;;;8.93;;
21014;SDS011;19207;-23.482;-46.500;2023-03-11T01:49:19;22.67;;;10.70;;
21014;SDS011;19207;-23.482;-46.500;2023-03-11T01:52:06;23.27;;;13.38;;
21014;SDS011;19207;-23.482;-46.500;2023-03-11T01:54:54;99.28;;;43.78;;
21014;SDS011;19207;-23.482;-46.500;2023-03-11T01:57:42;178.43;;;79.45;;
21014;SDS011;19207;-23.482;-46.500;2023-03-11T02:00:29;153.87;;;65.03;;
21014;SDS011;19207;-23.482;-46.500;2023-03-11T02:03:18;102.25;;;41.40;;
21014;SDS011;19207;-23.482;-46.500;2023-03-11T02:06:06;52.45;;;21.90;;
21014;SDS011;19207;-23.482;-46.500;2023-03-11T02:08:53;157.10;;;66.75;;
21014;SDS011;19207;-23.482;-46.500;2023-03-11T02:11:45;213.98;;;92.53;;
21014;SDS011;19207;-23.482;-46.500;2023-03-11T02:14:32;198.25;;;87.85;;
21014;SDS011;19207;-23.482;-46.500;2023-03-11T02:17:20;174.27;;;81.47;;
21014;SDS011;19207;-23.482;-46.500;2023-03-11T02:20:11;151.32;;;66.03;;
21014;SDS011;19207;-23.482;-46.500;2023-03-11T02:22:59;125.60;;;57.62;;
21014;SDS011;19207;-23.482;-46.500;2023-03-11T02:28:49;94.07;;;42.97;;
21014;SDS011;19207;-23.482;-46.500;2023-03-11T02:31:37;84.65;;;40.05;;
21014;SDS011;19207;-23.482;-46.500;2023-03-11T02:34:26;53.30;;;26.10;;
21014;SDS011;19207;-23.482;-46.500;2023-03-11T02:37:14;34.92;;;18.12;;
21014;SDS011;19207;-23.482;-46.500;2023-03-11T02:43:19;61.72;;;31.85;;
21014;SDS011;19207;-23.482;-46.500;2023-03-11T02:46:07;85.95;;;41.08;;
21014;SDS011;19207;-23.482;-46.500;2023-03-11T02:48:55;110.03;;;51.17;;
21014;SDS011;19207;-23.482;-46.500;2023-03-11T02:51:43;89.95;;;43.63;;
21014;SDS011;19207;-23.482;-46.500;2023-03-11T02:54:29;57.92;;;31.80;;
21014;SDS011;19207;-23.482;-46.500;2023-03-11T02:57:16;63.13;;;30.40;;
21014;SDS011;19207;-23.482;-46.500;2023-03-11T03:00:04;44.45;;;23.60;;
21014;SDS011;19207;-23.482;-46.500;2023-03-11T03:03:00;32.03;;;18.12;;
21014;SDS011;19207;-23.482;-46.500;2023-03-11T03:05:47;36.03;;;18.05;;
21014;SDS011;19207;-23.482;-46.500;2023-03-11T03:08:34;30.10;;;16.87;;
21014;SDS011;19207;-23.482;-46.500;2023-03-11T03:11:20;34.53;;;19.50;;
21014;SDS011;19207;-23.482;-46.500;2023-03-11T03:14:07;35.95;;;18.80;;
21014;SDS011;19207;-23.482;-46.500;2023-03-11T03:16:54;35.72;;;20.45;;
21014;SDS011;19207;-23.482;-46.500;2023-03-11T03:19:41;33.40;;;18.60;;
21014;SDS011;19207;-23.482;-46.500;2023-03-11T03:22:28;38.25;;;21.98;;
21014;SDS011;19207;-23.482;-46.500;2023-03-11T03:25:15;40.25;;;21.25;;
21014;SDS011;19207;-23.482;-46.500;2023-03-11T03:28:02;32.28;;;20.77;;
21014;SDS011;19207;-23.482;-46.500;2023-03-11T03:30:50;28.45;;;18.55;;
21014;SDS011;19207;-23.482;-46.500;2023-03-11T03:33:37;32.13;;;18.33;;
21014;SDS011;19207;-23.482;-46.500;2023-03-11T03:36:24;27.65;;;17.67;;
21014;SDS011;19207;-23.482;-46.500;2023-03-11T03:39:11;29.35;;;17.60;;
21014;SDS011;19207;-23.482;-46.500;2023-03-11T03:41:58;29.20;;;16.95;;
21014;SDS011;19207;-23.482;-46.500;2023-03-11T03:44:45;38.88;;;19.02;;
21014;SDS011;19207;-23.482;-46.500;2023-03-11T03:47:32;46.65;;;26.45;;
21014;SDS011;19207;-23.482;-46.500;2023-03-11T03:50:19;64.57;;;34.28;;
21014;SDS011;19207;-23.482;-46.500;2023-03-11T03:53:05;72.82;;;36.35;;
21014;SDS011;19207;-23.482;-46.500;2023-03-11T03:55:52;66.15;;;35.15;;
21014;SDS011;19207;-23.482;-46.500;2023-03-11T03:58:39;78.78;;;37.42;;
21014;SDS011;19207;-23.482;-46.500;2023-03-11T04:01:27;68.72;;;34.88;;
21014;SDS011;19207;-23.482;-46.500;2023-03-11T04:04:14;64.40;;;32.00;;
21014;SDS011;19207;-23.482;-46.500;2023-03-11T04:07:02;61.88;;;31.00;;
21014;SDS011;19207;-23.482;-46.500;2023-03-11T04:09:50;60.25;;;30.88;;
21014;SDS011;19207;-23.482;-46.500;2023-03-11T04:12:36;60.92;;;30.45;;
21014;SDS011;19207;-23.482;-46.500;2023-03-11T04:15:24;59.15;;;30.85;;
21014;SDS011;19207;-23.482;-46.500;2023-03-11T04:18:11;57.67;;;29.02;;
21014;SDS011;19207;-23.482;-46.500;2023-03-11T04:20:58;62.95;;;31.83;;
21014;SDS011;19207;-23.482;-46.500;2023-03-11T04:23:45;66.12;;;32.95;;
21014;SDS011;19207;-23.482;-46.500;2023-03-11T04:26:32;62.47;;;31.52;;
21014;SDS011;19207;-23.482;-46.500;2023-03-11T04:29:19;62.67;;;31.42;;
21014;SDS011;19207;-23.482;-46.500;2023-03-11T04:32:06;60.30;;;29.25;;
21014;SDS011;19207;-23.482;-46.500;2023-03-11T04:34:53;54.50;;;29.00;;
21014;SDS011;19207;-23.482;-46.500;2023-03-11T04:37:40;59.97;;;31.90;;
21014;SDS011;19207;-23.482;-46.500;2023-03-11T04:40:27;52.55;;;29.15;;
21014;SDS011;19207;-23.482;-46.500;2023-03-11T04:43:14;44.83;;;26.62;;
21014;SDS011;19207;-23.482;-46.500;2023-03-11T04:46:01;42.33;;;22.48;;
21014;SDS011;19207;-23.482;-46.500;2023-03-11T04:48:48;37.40;;;19.67;;
21014;SDS011;19207;-23.482;-46.500;2023-03-11T04:51:35;32.53;;;16.70;;
21014;SDS011;19207;-23.482;-46.500;2023-03-11T04:54:22;33.63;;;18.20;;
21014;SDS011;19207;-23.482;-46.500;2023-03-11T04:57:09;34.50;;;19.27;;
21014;SDS011;19207;-23.482;-46.500;2023-03-11T04:59:55;30.52;;;18.52;;
21014;SDS011;19207;-23.482;-46.500;2023-03-11T05:02:44;35.20;;;20.42;;
21014;SDS011;19207;-23.482;-46.500;2023-03-11T05:05:31;48.15;;;23.73;;
21014;SDS011;19207;-23.482;-46.500;2023-03-11T05:08:17;43.40;;;24.08;;
21014;SDS011;19207;-23.482;-46.500;2023-03-11T05:11:04;44.25;;;24.42;;
21014;SDS011;19207;-23.482;-46.500;2023-03-11T05:13:51;43.50;;;23.55;;
21014;SDS011;19207;-23.482;-46.500;2023-03-11T05:16:38;43.33;;;22.87;;
21014;SDS011;19207;-23.482;-46.500;2023-03-11T05:19:25;45.35;;;23.60;;
21014;SDS011;19207;-23.482;-46.500;2023-03-11T05:22:21;41.45;;;21.23;;
21014;SDS011;19207;-23.482;-46.500;2023-03-11T05:25:08;33.88;;;18.87;;
21014;SDS011;19207;-23.482;-46.500;2023-03-11T05:27:55;31.58;;;19.17;;
21014;SDS011;19207;-23.482;-46.500;2023-03-11T05:30:42;34.25;;;19.17;;
21014;SDS011;19207;-23.482;-46.500;2023-03-11T05:33:29;44.53;;;20.98;;
21014;SDS011;19207;-23.482;-46.500;2023-03-11T05:36:19;39.08;;;20.85;;
21014;SDS011;19207;-23.482;-46.500;2023-03-11T05:39:06;46.60;;;21.95;;
21014;SDS011;19207;-23.482;-46.500;2023-03-11T05:41:53;49.05;;;23.30;;
21014;SDS011;19207;-23.482;-46.500;2023-03-11T05:44:42;52.58;;;26.50;;
21014;SDS011;19207;-23.482;-46.500;2023-03-11T05:47:29;54.00;;;27.20;;
21014;SDS011;19207;-23.482;-46.500;2023-03-11T05:50:16;59.83;;;28.73;;
21014;SDS011;19207;-23.482;-46.500;2023-03-11T05:53:03;61.72;;;29.23;;
21014;SDS011;19207;-23.482;-46.500;2023-03-11T05:55:58;61.17;;;28.42;;
21014;SDS011;19207;-23.482;-46.500;2023-03-11T05:58:46;64.62;;;29.45;;
21014;SDS011;19207;-23.482;-46.500;2023-03-11T06:01:32;59.65;;;27.17;;
21014;SDS011;19207;-23.482;-46.500;2023-03-11T06:04:20;61.90;;;26.02;;
21014;SDS011;19207;-23.482;-46.500;2023-03-11T06:07:07;66.32;;;24.95;;
21014;SDS011;19207;-23.482;-46.500;2023-03-11T06:09:56;55.03;;;25.75;;
21014;SDS011;19207;-23.482;-46.500;2023-03-11T06:12:43;57.45;;;25.50;;
21014;SDS011;19207;-23.482;-46.500;2023-03-11T06:15:31;52.20;;;25.33;;
21014;SDS011;19207;-23.482;-46.500;2023-03-11T06:18:17;48.10;;;23.50;;
21014;SDS011;19207;-23.482;-46.500;2023-03-11T06:21:04;47.00;;;22.85;;
21014;SDS011;19207;-23.482;-46.500;2023-03-11T06:23:52;41.28;;;19.90;;
21014;SDS011;19207;-23.482;-46.500;2023-03-11T06:26:39;45.22;;;21.02;;
21014;SDS011;19207;-23.482;-46.500;2023-03-11T06:29:31;42.20;;;19.80;;
21014;SDS011;19207;-23.482;-46.500;2023-03-11T06:32:18;37.05;;;18.30;;
21014;SDS011;19207;-23.482;-46.500;2023-03-11T06:35:05;57.40;;;22.42;;
21014;SDS011;19207;-23.482;-46.500;2023-03-11T06:37:52;36.15;;;17.52;;
21014;SDS011;19207;-23.482;-46.500;2023-03-11T06:40:39;41.25;;;17.12;;
21014;SDS011;19207;-23.482;-46.500;2023-03-11T06:43:26;37.95;;;16.30;;
21014;SDS011;19207;-23.482;-46.500;2023-03-11T06:46:17;27.33;;;15.25;;
21014;SDS011;19207;-23.482;-46.500;2023-03-11T06:49:04;38.85;;;15.48;;
21014;SDS011;19207;-23.482;-46.500;2023-03-11T06:51:50;31.25;;;15.95;;
21014;SDS011;19207;-23.482;-46.500;2023-03-11T06:54:37;30.08;;;16.02;;
21014;SDS011;19207;-23.482;-46.500;2023-03-11T06:57:24;26.52;;;13.30;;
21014;SDS011;19207;-23.482;-46.500;2023-03-11T07:00:12;29.63;;;14.87;;
21014;SDS011;19207;-23.482;-46.500;2023-03-11T07:02:59;30.65;;;16.12;;
21014;SDS011;19207;-23.482;-46.500;2023-03-11T07:05:48;30.10;;;17.65;;
21014;SDS011;19207;-23.482;-46.500;2023-03-11T07:08:35;36.88;;;18.77;;
21014;SDS011;19207;-23.482;-46.500;2023-03-11T07:11:23;28.77;;;15.40;;
21014;SDS011;19207;-23.482;-46.500;2023-03-11T07:14:10;26.17;;;13.90;;
21014;SDS011;19207;-23.482;-46.500;2023-03-11T07:16:57;31.62;;;14.27;;
21014;SDS011;19207;-23.482;-46.500;2023-03-11T07:19:43;31.17;;;16.17;;
21014;SDS011;19207;-23.482;-46.500;2023-03-11T07:22:30;44.80;;;22.13;;
21014;SDS011;19207;-23.482;-46.500;2023-03-11T07:25:16;50.55;;;27.95;;
21014;SDS011;19207;-23.482;-46.500;2023-03-11T07:28:03;58.38;;;33.67;;
21014;SDS011;19207;-23.482;-46.500;2023-03-11T07:30:50;42.95;;;22.30;;
21014;SDS011;19207;-23.482;-46.500;2023-03-11T07:33:37;39.25;;;19.70;;
21014;SDS011;19207;-23.482;-46.500;2023-03-11T07:36:25;39.50;;;22.08;;
21014;SDS011;19207;-23.482;-46.500;2023-03-11T07:39:13;26.23;;;13.90;;
21014;SDS011;19207;-23.482;-46.500;2023-03-11T07:42:00;31.80;;;14.52;;
21014;SDS011;19207;-23.482;-46.500;2023-03-11T07:44:49;28.52;;;13.93;;
21014;SDS011;19207;-23.482;-46.500;2023-03-11T07:47:35;26.80;;;15.90;;
21014;SDS011;19207;-23.482;-46.500;2023-03-11T07:50:22;44.30;;;19.60;;
21014;SDS011;19207;-23.482;-46.500;2023-03-11T07:53:09;36.50;;;16.37;;
21014;SDS011;19207;-23.482;-46.500;2023-03-11T07:55:56;41.75;;;18.15;;
21014;SDS011;19207;-23.482;-46.500;2023-03-11T07:58:43;47.97;;;19.90;;
21014;SDS011;19207;-23.482;-46.500;2023-03-11T08:01:30;46.80;;;18.85;;
21014;SDS011;19207;-23.482;-46.500;2023-03-11T08:04:20;39.90;;;17.75;;
21014;SDS011;19207;-23.482;-46.500;2023-03-11T08:07:08;53.17;;;18.08;;
21014;SDS011;19207;-23.482;-46.500;2023-03-11T08:09:55;59.85;;;21.77;;
21014;SDS011;19207;-23.482;-46.500;2023-03-11T08:12:41;55.55;;;20.73;;
21014;SDS011;19207;-23.482;-46.500;2023-03-11T08:15:28;59.38;;;23.55;;
21014;SDS011;19207;-23.482;-46.500;2023-03-11T08:18:15;52.20;;;21.42;;
21014;SDS011;19207;-23.482;-46.500;2023-03-11T08:21:06;58.75;;;18.75;;
21014;SDS011;19207;-23.482;-46.500;2023-03-11T08:23:55;50.55;;;19.83;;
21014;SDS011;19207;-23.482;-46.500;2023-03-11T08:26:42;45.58;;;18.80;;
21014;SDS011;19207;-23.482;-46.500;2023-03-11T08:29:29;35.92;;;15.25;;
21014;SDS011;19207;-23.482;-46.500;2023-03-11T08:32:16;52.10;;;18.33;;
21014;SDS011;19207;-23.482;-46.500;2023-03-11T08:35:03;49.47;;;17.75;;
21014;SDS011;19207;-23.482;-46.500;2023-03-11T08:37:50;61.35;;;21.37;;
21014;SDS011;19207;-23.482;-46.500;2023-03-11T08:40:37;48.78;;;17.87;;
21014;SDS011;19207;-23.482;-46.500;2023-03-11T08:43:23;43.90;;;16.27;;
21014;SDS011;19207;-23.482;-46.500;2023-03-11T08:46:43;54.58;;;16.87;;
21014;SDS011;19207;-23.482;-46.500;2023-03-11T08:49:23;55.50;;;19.85;;
21014;SDS011;19207;-23.482;-46.500;2023-03-11T08:52:10;78.70;;;25.52;;
21014;SDS011;19207;-23.482;-46.500;2023-03-11T08:54:56;57.88;;;19.08;;
21014;SDS011;19207;-23.482;-46.500;2023-03-11T08:57:43;40.72;;;16.35;;
21014;SDS011;19207;-23.482;-46.500;2023-03-11T09:00:30;42.62;;;19.67;;
21014;SDS011;19207;-23.482;-46.500;2023-03-11T09:03:17;64.00;;;32.67;;
21014;SDS011;19207;-23.482;-46.500;2023-03-11T09:06:05;79.32;;;35.60;;
21014;SDS011;19207;-23.482;-46.500;2023-03-11T09:08:54;57.38;;;27.62;;
21014;SDS011;19207;-23.482;-46.500;2023-03-11T09:11:41;34.70;;;17.52;;
21014;SDS011;19207;-23.482;-46.500;2023-03-11T09:14:28;40.45;;;16.87;;
21014;SDS011;19207;-23.482;-46.500;2023-03-11T09:17:14;44.97;;;19.27;;
21014;SDS011;19207;-23.482;-46.500;2023-03-11T09:20:01;31.55;;;15.77;;
21014;SDS011;19207;-23.482;-46.500;2023-03-11T09:22:49;32.70;;;16.27;;
21014;SDS011;19207;-23.482;-46.500;2023-03-11T09:25:36;29.67;;;16.05;;
21014;SDS011;19207;-23.482;-46.500;2023-03-11T09:28:22;32.25;;;15.82;;
21014;SDS011;19207;-23.482;-46.500;2023-03-11T09:31:09;30.67;;;15.48;;
21014;SDS011;19207;-23.482;-46.500;2023-03-11T09:33:56;32.25;;;15.43;;
21014;SDS011;19207;-23.482;-46.500;2023-03-11T09:36:43;31.35;;;15.45;;
21014;SDS011;19207;-23.482;-46.500;2023-03-11T09:39:31;30.25;;;15.57;;
21014;SDS011;19207;-23.482;-46.500;2023-03-11T09:45:16;31.05;;;16.00;;
21014;SDS011;19207;-23.482;-46.500;2023-03-11T09:51:04;26.20;;;14.52;;
21014;SDS011;19207;-23.482;-46.500;2023-03-11T09:54:05;26.65;;;13.73;;
21014;SDS011;19207;-23.482;-46.500;2023-03-11T09:56:54;26.92;;;12.60;;
21014;SDS011;19207;-23.482;-46.500;2023-03-11T09:59:41;19.40;;;11.38;;
21014;SDS011;19207;-23.482;-46.500;2023-03-11T10:02:29;17.58;;;10.73;;
21014;SDS011;19207;-23.482;-46.500;2023-03-11T10:05:24;12.57;;;9.98;;
21014;SDS011;19207;-23.482;-46.500;2023-03-11T10:08:15;14.40;;;9.88;;
21014;SDS011;19207;-23.482;-46.500;2023-03-11T10:11:17;15.85;;;10.98;;
21014;SDS011;19207;-23.482;-46.500;2023-03-11T10:28:11;23.80;;;15.63;;
21014;SDS011;19207;-23.482;-46.500;2023-03-11T10:36:49;21.27;;;12.77;;
21014;SDS011;19207;-23.482;-46.500;2023-03-11T10:39:37;29.15;;;14.02;;
21014;SDS011;19207;-23.482;-46.500;2023-03-11T10:42:26;23.52;;;14.07;;
21014;SDS011;19207;-23.482;-46.500;2023-03-11T10:45:14;19.58;;;12.80;;
21014;SDS011;19207;-23.482;-46.500;2023-03-11T10:48:01;23.02;;;13.30;;
21014;SDS011;19207;-23.482;-46.500;2023-03-11T10:50:56;19.55;;;12.07;;
21014;SDS011;19207;-23.482;-46.500;2023-03-11T10:53:48;22.67;;;12.70;;
21014;SDS011;19207;-23.482;-46.500;2023-03-11T10:56:36;22.02;;;12.65;;
21014;SDS011;19207;-23.482;-46.500;2023-03-11T10:59:25;18.23;;;11.43;;
21014;SDS011;19207;-23.482;-46.500;2023-03-11T11:02:23;18.58;;;11.20;;
21014;SDS011;19207;-23.482;-46.500;2023-03-11T11:08:14;18.80;;;12.35;;
21014;SDS011;19207;-23.482;-46.500;2023-03-11T11:11:02;27.10;;;14.38;;
21014;SDS011;19207;-23.482;-46.500;2023-03-11T11:13:57;23.70;;;13.18;;
21014;SDS011;19207;-23.482;-46.500;2023-03-11T11:16:44;16.73;;;10.48;;
21014;SDS011;19207;-23.482;-46.500;2023-03-11T11:19:42;16.15;;;10.95;;
21014;SDS011;19207;-23.482;-46.500;2023-03-11T11:22:29;22.10;;;10.43;;
21014;SDS011;19207;-23.482;-46.500;2023-03-11T11:25:30;14.70;;;10.75;;
21014;SDS011;19207;-23.482;-46.500;2023-03-11T11:28:18;20.88;;;13.80;;
21014;SDS011;19207;-23.482;-46.500;2023-03-11T11:31:05;20.17;;;12.85;;
21014;SDS011;19207;-23.482;-46.500;2023-03-11T11:34:19;18.05;;;12.45;;
21014;SDS011;19207;-23.482;-46.500;2023-03-11T11:37:10;13.50;;;10.70;;
21014;SDS011;19207;-23.482;-46.500;2023-03-11T11:40:04;17.50;;;11.40;;
21014;SDS011;19207;-23.482;-46.500;2023-03-11T11:42:56;19.58;;;13.43;;
21014;SDS011;19207;-23.482;-46.500;2023-03-11T11:45:44;18.17;;;11.75;;
21014;SDS011;19207;-23.482;-46.500;2023-03-11T11:57:30;27.42;;;15.10;;
21014;SDS011;19207;-23.482;-46.500;2023-03-11T12:00:27;26.75;;;17.80;;
21014;SDS011;19207;-23.482;-46.500;2023-03-11T12:15:08;18.70;;;10.32;;
21014;SDS011;19207;-23.482;-46.500;2023-03-11T12:17:58;15.00;;;10.18;;
21014;SDS011;19207;-23.482;-46.500;2023-03-11T12:20:48;14.63;;;9.95;;
21014;SDS011;19207;-23.482;-46.500;2023-03-11T12:23:50;16.70;;;10.52;;
21014;SDS011;19207;-23.482;-46.500;2023-03-11T12:26:41;15.45;;;9.90;;
21014;SDS011;19207;-23.482;-46.500;2023-03-11T12:29:32;13.52;;;9.95;;
21014;SDS011;19207;-23.482;-46.500;2023-03-11T12:32:28;17.35;;;9.35;;
21014;SDS011;19207;-23.482;-46.500;2023-03-11T12:49:41;11.07;;;8.98;;
21014;SDS011;19207;-23.482;-46.500;2023-03-11T12:52:50;18.50;;;9.80;;
21014;SDS011;19207;-23.482;-46.500;2023-03-11T12:55:37;14.68;;;9.10;;
21014;SDS011;19207;-23.482;-46.500;2023-03-11T12:58:31;12.30;;;9.25;;
21014;SDS011;19207;-23.482;-46.500;2023-03-11T13:01:43;14.93;;;9.65;;
21014;SDS011;19207;-23.482;-46.500;2023-03-11T13:10:19;19.95;;;11.50;;
21014;SDS011;19207;-23.482;-46.500;2023-03-11T13:19:26;21.02;;;12.98;;
21014;SDS011;19207;-23.482;-46.500;2023-03-11T13:22:08;21.62;;;12.90;;
21014;SDS011;19207;-23.482;-46.500;2023-03-11T13:25:27;20.73;;;12.20;;
21014;SDS011;19207;-23.482;-46.500;2023-03-11T13:31:13;16.45;;;12.13;;
21014;SDS011;19207;-23.482;-46.500;2023-03-11T13:40:10;17.52;;;12.73;;
21014;SDS011;19207;-23.482;-46.500;2023-03-11T13:43:02;25.73;;;14.68;;
21014;SDS011;19207;-23.482;-46.500;2023-03-11T13:46:04;21.02;;;13.68;;
21014;SDS011;19207;-23.482;-46.500;2023-03-11T13:48:53;30.45;;;14.68;;
21014;SDS011;19207;-23.482;-46.500;2023-03-11T13:51:42;18.45;;;13.02;;
21014;SDS011;19207;-23.482;-46.500;2023-03-11T13:57:38;20.73;;;13.50;;
21014;SDS011;19207;-23.482;-46.500;2023-03-11T14:00:26;18.35;;;13.18;;
21014;SDS011;19207;-23.482;-46.500;2023-03-11T14:03:13;18.12;;;10.05;;
21014;SDS011;19207;-23.482;-46.500;2023-03-11T14:06:05;14.82;;;10.52;;
21014;SDS011;19207;-23.482;-46.500;2023-03-11T14:08:54;18.33;;;9.23;;
21014;SDS011;19207;-23.482;-46.500;2023-03-11T14:11:41;19.70;;;12.25;;
21014;SDS011;19207;-23.482;-46.500;2023-03-11T14:17:22;18.98;;;12.75;;
21014;SDS011;19207;-23.482;-46.500;2023-03-11T14:20:13;18.20;;;12.07;;
21014;SDS011;19207;-23.482;-46.500;2023-03-11T14:23:00;18.58;;;11.10;;
21014;SDS011;19207;-23.482;-46.500;2023-03-11T14:25:48;15.95;;;11.12;;
21014;SDS011;19207;-23.482;-46.500;2023-03-11T14:28:43;15.60;;;11.25;;
21014;SDS011;19207;-23.482;-46.500;2023-03-11T14:34:18;12.05;;;9.45;;
21014;SDS011;19207;-23.482;-46.500;2023-03-11T14:37:14;14.90;;;9.48;;
21014;SDS011;19207;-23.482;-46.500;2023-03-11T14:43:11;14.65;;;10.82;;
21014;SDS011;19207;-23.482;-46.500;2023-03-11T14:45:58;14.60;;;9.98;;
21014;SDS011;19207;-23.482;-46.500;2023-03-11T14:48:45;14.20;;;10.10;;
21014;SDS011;19207;-23.482;-46.500;2023-03-11T14:51:33;12.15;;;9.30;;
21014;SDS011;19207;-23.482;-46.500;2023-03-11T14:54:21;11.55;;;8.57;;
21014;SDS011;19207;-23.482;-46.500;2023-03-11T15:00:26;13.98;;;10.32;;
21014;SDS011;19207;-23.482;-46.500;2023-03-11T15:03:19;15.20;;;10.30;;
21014;SDS011;19207;-23.482;-46.500;2023-03-11T15:06:13;14.00;;;9.75;;
21014;SDS011;19207;-23.482;-46.500;2023-03-11T15:09:02;11.80;;;9.40;;
21014;SDS011;19207;-23.482;-46.500;2023-03-11T15:11:51;12.00;;;9.45;;
21014;SDS011;19207;-23.482;-46.500;2023-03-11T15:14:48;14.82;;;8.65;;
21014;SDS011;19207;-23.482;-46.500;2023-03-11T15:17:36;14.32;;;8.25;;
21014;SDS011;19207;-23.482;-46.500;2023-03-11T15:23:15;11.98;;;8.10;;
21014;SDS011;19207;-23.482;-46.500;2023-03-11T15:26:05;11.73;;;7.75;;
21014;SDS011;19207;-23.482;-46.500;2023-03-11T15:28:53;12.30;;;7.28;;
21014;SDS011;19207;-23.482;-46.500;2023-03-11T15:31:44;9.35;;;7.15;;
21014;SDS011;19207;-23.482;-46.500;2023-03-11T15:34:31;15.68;;;7.57;;
21014;SDS011;19207;-23.482;-46.500;2023-03-11T15:37:19;9.43;;;6.70;;
21014;SDS011;19207;-23.482;-46.500;2023-03-11T15:40:11;7.25;;;5.75;;
21014;SDS011;19207;-23.482;-46.500;2023-03-11T15:43:32;9.43;;;6.68;;
21014;SDS011;19207;-23.482;-46.500;2023-03-11T15:46:11;9.10;;;6.90;;
21014;SDS011;19207;-23.482;-46.500;2023-03-11T15:48:58;9.27;;;6.03;;
21014;SDS011;19207;-23.482;-46.500;2023-03-11T15:51:45;7.30;;;5.40;;
21014;SDS011;19207;-23.482;-46.500;2023-03-11T15:54:32;7.62;;;5.43;;
21014;SDS011;19207;-23.482;-46.500;2023-03-11T15:57:25;7.95;;;5.25;;
21014;SDS011;19207;-23.482;-46.500;2023-03-11T16:00:14;6.97;;;5.87;;
21014;SDS011;19207;-23.482;-46.500;2023-03-11T16:03:03;7.32;;;6.50;;
21014;SDS011;19207;-23.482;-46.500;2023-03-11T16:05:50;15.18;;;9.48;;
21014;SDS011;19207;-23.482;-46.500;2023-03-11T16:08:37;7.62;;;5.82;;
21014;SDS011;19207;-23.482;-46.500;2023-03-11T16:11:24;8.15;;;5.87;;
21014;SDS011;19207;-23.482;-46.500;2023-03-11T16:14:15;8.02;;;5.65;;
21014;SDS011;19207;-23.482;-46.500;2023-03-11T16:17:02;6.68;;;5.80;;
21014;SDS011;19207;-23.482;-46.500;2023-03-11T16:19:50;6.22;;;5.55;;
21014;SDS011;19207;-23.482;-46.500;2023-03-11T16:22:36;6.60;;;5.35;;
21014;SDS011;19207;-23.482;-46.500;2023-03-11T16:25:27;6.28;;;5.10;;
21014;SDS011;19207;-23.482;-46.500;2023-03-11T16:28:14;8.50;;;5.30;;
21014;SDS011;19207;-23.482;-46.500;2023-03-11T16:31:02;6.12;;;5.25;;
21014;SDS011;19207;-23.482;-46.500;2023-03-11T16:33:49;9.77;;;5.40;;
21014;SDS011;19207;-23.482;-46.500;2023-03-11T16:36:38;7.47;;;5.75;;
21014;SDS011;19207;-23.482;-46.500;2023-03-11T16:39:25;6.18;;;5.57;;
21014;SDS011;19207;-23.482;-46.500;2023-03-11T16:42:12;9.63;;;5.45;;
21014;SDS011;19207;-23.482;-46.500;2023-03-11T16:45:00;7.60;;;5.70;;
21014;SDS011;19207;-23.482;-46.500;2023-03-11T16:47:47;7.85;;;5.95;;
21014;SDS011;19207;-23.482;-46.500;2023-03-11T16:50:33;9.95;;;5.78;;
21014;SDS011;19207;-23.482;-46.500;2023-03-11T16:53:20;7.50;;;5.62;;
21014;SDS011;19207;-23.482;-46.500;2023-03-11T16:56:06;6.00;;;5.40;;
21014;SDS011;19207;-23.482;-46.500;2023-03-11T16:58:53;10.02;;;6.18;;
21014;SDS011;19207;-23.482;-46.500;2023-03-11T17:01:40;6.95;;;5.45;;
21014;SDS011;19207;-23.482;-46.500;2023-03-11T17:04:26;8.98;;;5.80;;
21014;SDS011;19207;-23.482;-46.500;2023-03-11T17:07:13;5.50;;;5.00;;
21014;SDS011;19207;-23.482;-46.500;2023-03-11T17:10:09;10.50;;;5.47;;
21014;SDS011;19207;-23.482;-46.500;2023-03-11T17:12:56;5.45;;;4.82;;
21014;SDS011;19207;-23.482;-46.500;2023-03-11T17:15:43;6.45;;;4.78;;
21014;SDS011;19207;-23.482;-46.500;2023-03-11T17:18:30;7.18;;;4.80;;
21014;SDS011;19207;-23.482;-46.500;2023-03-11T17:21:18;5.82;;;4.90;;
21014;SDS011;19207;-23.482;-46.500;2023-03-11T17:24:05;7.60;;;5.10;;
21014;SDS011;19207;-23.482;-46.500;2023-03-11T17:26:52;8.10;;;5.07;;
21014;SDS011;19207;-23.482;-46.500;2023-03-11T17:29:38;7.95;;;4.97;;
21014;SDS011;19207;-23.482;-46.500;2023-03-11T17:32:27;5.25;;;4.75;;
21014;SDS011;19207;-23.482;-46.500;2023-03-11T17:35:13;5.53;;;4.87;;
21014;SDS011;19207;-23.482;-46.500;2023-03-11T17:38:00;6.75;;;4.80;;
21014;SDS011;19207;-23.482;-46.500;2023-03-11T17:40:47;7.85;;;5.20;;